createdAt,value
2023-08-11T00:45:50.643Z,19.10
2023-08-11T00:48:18.674Z,19.00
2023-08-11T00:50:46.834Z,19.00
2023-08-11T00:53:15.184Z,19.00
2023-08-11T00:55:43.147Z,19.00
2023-08-11T00:58:11.276Z,19.00
2023-08-11T01:00:40.352Z,19.00
2023-08-11T01:03:10.210Z,19.00
2023-08-11T01:05:45.296Z,19.00
2023-08-11T01:08:19.124Z,19.00
2023-08-11T01:10:54.517Z,19.00
2023-08-11T01:13:22.882Z,18.90
2023-08-11T01:15:58.175Z,18.90
2023-08-11T01:18:29.243Z,18.90
2023-08-11T01:21:05.375Z,18.90
2023-08-11T01:23:35.287Z,18.90
2023-08-11T01:26:03.330Z,18.90
2023-08-11T01:28:31.288Z,19.00
2023-08-11T01:30:59.244Z,19.00
2023-08-11T01:33:27.299Z,19.00
2023-08-11T01:35:55.301Z,19.00
2023-08-11T01:38:23.195Z,18.90
2023-08-11T01:40:52.568Z,18.90
2023-08-11T01:43:21.999Z,18.80
2023-08-11T01:45:51.259Z,18.80
2023-08-11T01:48:20.900Z,18.80
2023-08-11T01:50:48.995Z,18.90
2023-08-11T01:53:17.051Z,18.80
2023-08-11T01:55:46.035Z,18.80
2023-08-11T01:58:15.547Z,18.80
2023-08-11T02:00:43.400Z,18.80
2023-08-11T02:03:11.368Z,18.70
2023-08-11T02:05:39.592Z,18.70
2023-08-11T02:08:08.132Z,18.80
2023-08-11T02:10:35.999Z,18.80
2023-08-11T02:13:06.310Z,18.80
2023-08-11T02:15:35.488Z,18.90
2023-08-11T02:18:03.396Z,18.90
2023-08-11T02:20:33.975Z,18.90
2023-08-11T02:23:02.053Z,18.90
2023-08-11T02:25:30.023Z,18.90
2023-08-11T02:27:57.870Z,18.90
2023-08-11T02:30:29.894Z,18.90
2023-08-11T02:32:59.258Z,18.90
2023-08-11T02:35:27.303Z,18.90
2023-08-11T02:37:55.199Z,18.80
2023-08-11T02:40:23.299Z,18.70
2023-08-11T02:42:56.181Z,18.70
2023-08-11T02:45:24.287Z,18.80
2023-08-11T02:47:53.128Z,18.80
2023-08-11T02:50:22.419Z,18.80
2023-08-11T02:52:50.423Z,18.80
2023-08-11T02:55:18.462Z,18.80
2023-08-11T02:57:46.981Z,18.80
2023-08-11T03:00:16.135Z,18.80
2023-08-11T03:02:47.138Z,18.90
2023-08-11T03:05:16.795Z,18.80
2023-08-11T03:07:46.066Z,18.70
2023-08-11T03:10:13.973Z,18.70
2023-08-11T03:12:41.945Z,18.60
2023-08-11T03:15:10.358Z,18.60
2023-08-11T03:17:38.342Z,18.70
2023-08-11T03:20:12.489Z,18.70
2023-08-11T03:22:40.493Z,18.70
2023-08-11T03:25:12.654Z,18.70
2023-08-11T03:27:43.224Z,18.70
2023-08-11T03:30:12.980Z,18.70
2023-08-11T03:32:41.706Z,18.60
2023-08-11T03:35:10.237Z,18.70
2023-08-11T03:37:38.134Z,18.60
2023-08-11T03:40:10.345Z,18.60
2023-08-11T03:42:39.555Z,18.70
2023-08-11T03:45:08.592Z,18.70
2023-08-11T03:47:36.646Z,18.70
2023-08-11T03:50:04.917Z,18.70
2023-08-11T03:52:33.142Z,18.70
2023-08-11T03:55:01.085Z,18.80
2023-08-11T03:57:29.176Z,18.80
2023-08-11T03:59:58.521Z,18.80
2023-08-11T04:02:27.329Z,18.80
2023-08-11T04:04:55.291Z,18.80
2023-08-11T04:07:23.378Z,18.70
2023-08-11T04:09:51.252Z,18.70
2023-08-11T04:12:19.237Z,18.70
2023-08-11T04:14:47.074Z,18.70
2023-08-11T04:17:17.633Z,18.70
2023-08-11T04:19:46.413Z,18.60
2023-08-11T04:22:15.972Z,18.60
2023-08-11T04:24:46.441Z,18.50
2023-08-11T04:27:14.313Z,18.60
2023-08-11T04:29:42.345Z,18.60
2023-08-11T04:32:11.277Z,18.60
2023-08-11T04:34:40.750Z,18.60
2023-08-11T04:37:09.653Z,18.70
2023-08-11T04:39:38.023Z,18.70
2023-08-11T04:42:06.490Z,18.70
2023-08-11T04:44:34.548Z,18.70
2023-08-11T04:47:02.486Z,18.70
2023-08-11T04:49:30.605Z,18.70
2023-08-11T04:51:59.834Z,18.70
2023-08-11T04:54:27.861Z,18.60
2023-08-11T04:56:55.927Z,18.60
2023-08-11T04:59:23.791Z,18.70
2023-08-11T05:01:52.038Z,18.60
2023-08-11T05:04:19.875Z,18.70
2023-08-11T05:06:47.642Z,18.70
2023-08-11T05:09:16.949Z,18.70
2023-08-11T05:11:44.768Z,18.70
2023-08-11T05:14:15.309Z,18.80
2023-08-11T05:16:43.337Z,18.80
2023-08-11T05:19:11.266Z,18.80
2023-08-11T05:21:39.610Z,18.80
2023-08-11T05:24:08.803Z,18.80
2023-08-11T05:26:38.038Z,18.90
2023-08-11T05:29:06.688Z,18.90
2023-08-11T05:31:35.492Z,19.00
2023-08-11T05:34:03.505Z,18.90
2023-08-11T05:36:31.352Z,18.90
2023-08-11T05:38:59.238Z,18.90
2023-08-11T05:41:27.077Z,19.00
2023-08-11T05:43:56.292Z,19.00
2023-08-11T05:46:24.409Z,18.90
2023-08-11T05:48:52.341Z,19.00
2023-08-11T05:51:20.286Z,19.00
2023-08-11T05:53:48.301Z,19.00
2023-08-11T05:56:18.916Z,19.00
2023-08-11T05:58:46.759Z,19.10
2023-08-11T06:01:16.004Z,19.10
2023-08-11T06:03:43.865Z,19.10
2023-08-11T06:06:11.796Z,19.00
2023-08-11T06:08:39.788Z,19.20
2023-08-11T06:11:07.674Z,19.30
2023-08-11T06:13:35.579Z,19.50
2023-08-11T06:16:03.809Z,19.70
2023-08-11T06:18:33.037Z,19.90
2023-08-11T06:21:05.181Z,20.20
2023-08-11T06:23:33.328Z,20.50
2023-08-11T06:26:01.254Z,20.80
2023-08-11T06:28:29.574Z,21.10
2023-08-11T06:30:59.579Z,21.20
2023-08-11T06:33:27.624Z,21.40
2023-08-11T06:35:56.995Z,21.70
2023-08-11T06:38:24.913Z,21.90
2023-08-11T06:40:53.043Z,22.20
2023-08-11T06:43:21.314Z,22.20
2023-08-11T06:45:49.173Z,22.20
2023-08-11T06:48:17.014Z,22.20
2023-08-11T06:50:44.901Z,22.50
2023-08-11T06:53:14.420Z,22.60
2023-08-11T06:55:42.218Z,22.80
2023-08-11T06:58:10.153Z,22.90
2023-08-11T07:00:38.689Z,23.10
2023-08-11T07:03:06.696Z,23.30
2023-08-11T07:05:34.757Z,23.20
2023-08-11T07:08:02.579Z,23.30
2023-08-11T07:10:31.694Z,23.30
2023-08-11T07:12:59.585Z,23.30
2023-08-11T07:15:27.397Z,23.30
2023-08-11T07:17:55.390Z,23.40
2023-08-11T07:20:23.497Z,23.40
2023-08-11T07:22:51.726Z,23.30
2023-08-11T07:25:19.713Z,23.40
2023-08-11T07:27:49.193Z,23.60
2023-08-11T07:30:17.115Z,23.60
2023-08-11T07:32:44.992Z,23.80
2023-08-11T07:35:13.346Z,23.90
2023-08-11T07:37:41.174Z,24.10
2023-08-11T07:40:10.531Z,24.10
2023-08-11T07:42:38.501Z,24.20
2023-08-11T07:45:09.212Z,24.40
2023-08-11T07:47:37.095Z,24.30
2023-08-11T07:50:05.426Z,24.40
2023-08-11T07:52:33.321Z,24.20
2023-08-11T07:55:01.287Z,24.20
2023-08-11T07:57:29.606Z,24.30
2023-08-11T07:59:58.329Z,24.40
2023-08-11T08:02:27.877Z,24.40
2023-08-11T08:05:05.794Z,24.40
2023-08-11T08:07:40.057Z,24.50
2023-08-11T08:10:09.705Z,24.60
2023-08-11T08:12:38.472Z,24.60
2023-08-11T08:15:07.548Z,24.50
2023-08-11T08:17:37.422Z,24.50
2023-08-11T08:20:08.168Z,24.40
2023-08-11T08:22:36.073Z,24.30
2023-08-11T08:25:07.825Z,24.20
2023-08-11T08:27:36.193Z,24.20
2023-08-11T08:30:04.425Z,24.40
2023-08-11T08:32:32.355Z,24.50
2023-08-11T08:35:01.723Z,24.70
2023-08-11T08:37:29.983Z,24.80
2023-08-11T08:39:57.873Z,25.00
2023-08-11T08:42:27.627Z,25.00
2023-08-11T08:44:56.271Z,24.80
2023-08-11T08:47:25.551Z,24.90
2023-08-11T08:49:54.227Z,25.00
2023-08-11T08:52:23.958Z,25.00
2023-08-11T08:54:52.425Z,25.10
2023-08-11T08:57:21.814Z,25.30
2023-08-11T08:59:49.837Z,25.40
2023-08-11T09:02:18.482Z,25.50
2023-08-11T09:04:47.729Z,25.60
2023-08-11T09:07:18.373Z,25.60
2023-08-11T09:09:49.362Z,25.70
2023-08-11T09:12:17.333Z,25.80
2023-08-11T09:14:45.523Z,25.90
2023-08-11T09:17:13.994Z,26.10
2023-08-11T09:19:45.499Z,26.20
2023-08-11T09:22:13.569Z,26.00
2023-08-11T09:24:41.998Z,25.90
2023-08-11T09:27:12.327Z,25.80
2023-08-11T09:29:40.140Z,25.80
2023-08-11T09:32:09.016Z,26.00
2023-08-11T09:34:40.667Z,26.00
2023-08-11T09:37:08.591Z,26.10
2023-08-11T09:39:37.971Z,26.00
2023-08-11T09:42:07.007Z,26.00
2023-08-11T09:44:36.850Z,26.30
2023-08-11T09:47:15.418Z,26.20
2023-08-11T09:49:44.109Z,26.20
2023-08-11T09:52:13.710Z,26.30
2023-08-11T09:54:44.949Z,26.20
2023-08-11T09:57:15.318Z,26.20
2023-08-11T09:59:48.337Z,26.30
2023-08-11T10:02:19.419Z,26.50
2023-08-11T10:04:58.505Z,26.60
2023-08-11T10:07:35.257Z,26.70
2023-08-11T10:10:10.255Z,26.70
2023-08-11T10:12:41.816Z,26.70
2023-08-11T10:15:13.253Z,26.80
2023-08-11T10:17:41.875Z,26.60
2023-08-11T10:20:11.236Z,26.50
2023-08-11T10:22:39.112Z,26.70
2023-08-11T10:25:08.973Z,26.60
2023-08-11T10:27:37.808Z,26.70
2023-08-11T10:30:08.647Z,26.70
2023-08-11T10:32:37.986Z,26.80
2023-08-11T10:35:09.464Z,27.00
2023-08-11T10:37:37.576Z,27.10
2023-08-11T10:40:07.322Z,27.10
2023-08-11T10:42:38.248Z,26.80
2023-08-11T10:45:11.033Z,26.80
2023-08-11T10:47:41.162Z,26.90
2023-08-11T10:50:10.846Z,26.80
2023-08-11T10:52:39.051Z,26.90
2023-08-11T10:55:08.049Z,27.00
2023-08-11T10:57:36.860Z,26.90
2023-08-11T11:00:05.214Z,27.10
2023-08-11T11:02:36.395Z,27.20
2023-08-11T11:05:08.803Z,27.30
2023-08-11T11:07:39.714Z,27.10
2023-08-11T11:10:09.693Z,27.00
2023-08-11T11:12:37.561Z,26.90
2023-08-11T11:15:07.109Z,26.90
2023-08-11T11:17:34.953Z,26.90
2023-08-11T11:20:03.651Z,27.00
2023-08-11T11:22:33.141Z,27.10
2023-08-11T11:25:04.205Z,27.20
2023-08-11T11:27:32.258Z,27.20
2023-08-11T11:30:00.818Z,27.30
2023-08-11T11:32:29.113Z,27.40
2023-08-11T11:34:57.139Z,27.40
2023-08-11T11:37:26.977Z,27.40
2023-08-11T11:39:59.341Z,27.50
2023-08-11T11:42:30.311Z,27.60
2023-08-11T11:44:58.475Z,27.40
2023-08-11T11:47:27.093Z,27.50
2023-08-11T11:49:58.821Z,27.70
2023-08-11T11:52:27.626Z,27.70
2023-08-11T11:54:57.226Z,27.50
2023-08-11T11:57:26.057Z,27.50
2023-08-11T11:59:54.235Z,27.70
2023-08-11T12:02:24.017Z,27.80
2023-08-11T12:04:52.918Z,27.80
2023-08-11T12:07:32.111Z,28.00
2023-08-11T12:10:02.249Z,28.00
2023-08-11T12:12:30.517Z,27.90
2023-08-11T12:15:03.307Z,28.00
2023-08-11T12:17:32.550Z,28.00
2023-08-11T12:20:02.478Z,28.00
2023-08-11T12:22:30.678Z,28.20
2023-08-11T12:24:59.229Z,28.30
2023-08-11T12:27:30.434Z,28.20
2023-08-11T12:30:00.530Z,28.20
2023-08-11T12:32:28.376Z,28.20
2023-08-11T12:34:56.286Z,28.20
2023-08-11T12:37:24.479Z,28.20
2023-08-11T12:39:52.307Z,28.30
2023-08-11T12:42:20.421Z,28.40
2023-08-11T12:44:49.654Z,28.50
2023-08-11T12:47:17.736Z,28.70
2023-08-11T12:49:45.692Z,28.70
2023-08-11T12:52:13.517Z,28.60
2023-08-11T12:54:41.435Z,28.50
2023-08-11T12:57:09.299Z,28.40
2023-08-11T12:59:37.215Z,28.50
2023-08-11T13:02:07.352Z,28.50
2023-08-11T13:04:35.300Z,28.50
2023-08-11T13:07:03.148Z,28.60
2023-08-11T13:09:30.932Z,28.70
2023-08-11T13:11:58.853Z,28.70
2023-08-11T13:14:27.297Z,28.80
2023-08-11T13:16:55.202Z,28.70
2023-08-11T13:19:24.526Z,28.80
2023-08-11T13:21:52.361Z,28.90
2023-08-11T13:24:21.338Z,29.00
2023-08-11T13:26:49.400Z,28.90
2023-08-11T13:29:17.242Z,28.90
2023-08-11T13:31:45.099Z,29.00
2023-08-11T13:34:13.191Z,29.20
2023-08-11T13:36:43.598Z,29.30
2023-08-11T13:39:11.676Z,29.40
2023-08-11T13:41:40.675Z,29.30
2023-08-11T13:44:08.576Z,29.20
2023-08-11T13:46:36.390Z,29.40
2023-08-11T13:49:04.373Z,29.30
2023-08-11T13:51:33.569Z,29.30
2023-08-11T13:54:04.410Z,29.40
2023-08-11T13:56:34.880Z,29.50
2023-08-11T13:59:03.528Z,29.70
2023-08-11T14:01:31.633Z,29.80
2023-08-11T14:03:59.641Z,29.60
2023-08-11T14:06:27.732Z,29.50
2023-08-11T14:08:55.695Z,29.70
2023-08-11T14:11:25.694Z,29.70
2023-08-11T14:13:53.594Z,29.80
2023-08-11T14:16:21.726Z,29.70
2023-08-11T14:18:49.790Z,29.60
2023-08-11T14:21:18.801Z,29.50
2023-08-11T14:23:47.985Z,29.60
2023-08-11T14:26:15.910Z,29.60
2023-08-11T14:28:45.379Z,29.70
2023-08-11T14:31:13.502Z,29.70
2023-08-11T14:33:42.048Z,29.80
2023-08-11T14:36:13.337Z,30.00
2023-08-11T14:38:43.303Z,29.90
2023-08-11T14:41:11.516Z,30.00
2023-08-11T14:43:39.319Z,30.10
2023-08-11T14:46:08.553Z,30.20
2023-08-11T14:48:36.432Z,30.40
2023-08-11T14:51:05.131Z,30.30
2023-08-11T14:53:33.261Z,30.20
2023-08-11T14:56:01.209Z,30.10
2023-08-11T14:58:29.021Z,30.10
2023-08-11T15:00:57.677Z,30.10
2023-08-11T15:03:28.033Z,29.90
2023-08-11T15:05:55.929Z,30.00
2023-08-11T15:08:24.227Z,29.90
2023-08-11T15:10:52.071Z,30.00
2023-08-11T15:13:19.929Z,30.10
2023-08-11T15:15:47.847Z,30.20
2023-08-11T15:18:15.683Z,30.30
2023-08-11T15:20:44.935Z,30.30
2023-08-11T15:23:12.798Z,30.30
2023-08-11T15:25:43.325Z,30.20
2023-08-11T15:28:11.977Z,30.10
2023-08-11T15:30:39.867Z,29.90
2023-08-11T15:33:07.769Z,29.90
2023-08-11T15:35:35.660Z,29.90
2023-08-11T15:38:07.062Z,29.90
2023-08-11T15:40:35.272Z,30.00
2023-08-11T15:43:03.544Z,30.00
2023-08-11T15:45:31.468Z,30.10
2023-08-11T15:47:59.356Z,30.00
2023-08-11T15:50:27.270Z,30.00
2023-08-11T15:52:55.160Z,29.80
2023-08-11T15:55:35.723Z,29.90
2023-08-11T15:58:04.436Z,29.80
2023-08-11T16:00:32.385Z,29.80
2023-08-11T16:03:00.480Z,29.80
2023-08-11T16:05:28.579Z,29.70
2023-08-11T16:07:56.401Z,29.80
2023-08-11T16:10:27.498Z,29.80
2023-08-11T16:12:55.432Z,29.80
2023-08-11T16:15:23.447Z,29.80
2023-08-11T16:17:54.392Z,29.70
2023-08-11T16:20:22.283Z,29.60
2023-08-11T16:22:51.638Z,29.50
2023-08-11T16:25:19.704Z,29.50
2023-08-11T16:27:48.894Z,29.60
2023-08-11T16:30:16.882Z,29.70
2023-08-11T16:32:44.705Z,29.70
2023-08-11T16:35:12.579Z,29.70
2023-08-11T16:37:40.730Z,29.60
2023-08-11T16:40:10.281Z,29.50
2023-08-11T16:42:38.178Z,29.60
2023-08-11T16:45:08.129Z,29.50
2023-08-11T16:47:36.169Z,29.50
2023-08-11T16:50:04.117Z,29.50
2023-08-11T16:52:32.266Z,29.50
2023-08-11T16:55:00.189Z,29.50
2023-08-11T16:57:28.540Z,29.40
2023-08-11T16:59:56.425Z,29.30
2023-08-11T17:02:25.759Z,29.30
2023-08-11T17:04:53.735Z,29.10
2023-08-11T17:07:21.673Z,29.10
2023-08-11T17:09:49.504Z,29.00
2023-08-11T17:12:17.742Z,28.90
2023-08-11T17:14:45.573Z,29.00
2023-08-11T17:17:13.421Z,29.00
2023-08-11T17:19:42.692Z,29.00
2023-08-11T17:22:11.817Z,28.90
2023-08-11T17:24:40.131Z,28.80
2023-08-11T17:27:08.131Z,28.80
2023-08-11T17:29:35.921Z,28.70
2023-08-11T17:32:03.951Z,28.70
2023-08-11T17:34:34.067Z,28.60
2023-08-11T17:37:06.033Z,28.50
2023-08-11T17:39:34.816Z,28.50
2023-08-11T17:42:03.957Z,28.40
2023-08-11T17:44:31.832Z,28.30
2023-08-11T17:46:59.737Z,28.20
2023-08-11T17:49:27.923Z,28.20
2023-08-11T17:51:55.809Z,28.10
2023-08-11T17:54:24.995Z,28.00
2023-08-11T17:56:52.811Z,28.00
2023-08-11T17:59:20.578Z,27.90
2023-08-11T18:01:48.384Z,27.90
2023-08-11T18:04:16.241Z,27.80
2023-08-11T18:06:44.069Z,27.80
2023-08-11T18:09:12.503Z,27.70
2023-08-11T18:11:41.671Z,27.60
2023-08-11T18:14:09.639Z,27.50
2023-08-11T18:16:37.694Z,27.50
2023-08-11T18:19:05.699Z,27.40
2023-08-11T18:21:33.619Z,27.30
2023-08-11T18:24:01.555Z,27.30
2023-08-11T18:26:30.729Z,27.30
2023-08-11T18:28:59.917Z,27.30
2023-08-11T18:31:28.244Z,27.20
2023-08-11T18:33:56.248Z,27.20
2023-08-11T18:36:24.648Z,27.20
2023-08-11T18:38:52.529Z,27.20
2023-08-11T18:41:21.433Z,27.20
2023-08-11T18:43:49.303Z,27.20
2023-08-11T18:46:18.767Z,27.10
2023-08-11T18:48:49.081Z,27.00
2023-08-11T18:51:17.322Z,27.00
2023-08-11T18:53:45.378Z,26.90
2023-08-11T18:56:13.246Z,26.80
2023-08-11T18:58:41.012Z,26.70
2023-08-11T19:01:08.917Z,26.60
2023-08-11T19:03:38.219Z,26.60
2023-08-11T19:06:06.797Z,26.50
2023-08-11T19:08:34.653Z,26.40
2023-08-11T19:11:02.677Z,26.40
2023-08-11T19:13:30.652Z,26.30
2023-08-11T19:15:58.577Z,26.20
2023-08-11T19:18:26.443Z,26.10
2023-08-11T19:20:58.022Z,25.90
2023-08-11T19:23:26.588Z,25.80
2023-08-11T19:25:54.534Z,25.70
2023-08-11T19:28:22.379Z,25.60
2023-08-11T19:30:52.507Z,25.60
2023-08-11T19:33:20.359Z,25.60
2023-08-11T19:35:48.586Z,25.60
2023-08-11T19:38:17.852Z,25.50
2023-08-11T19:40:45.776Z,25.50
2023-08-11T19:43:13.617Z,25.40
2023-08-11T19:45:47.901Z,25.40
2023-08-11T19:48:15.794Z,25.30
2023-08-11T19:50:45.698Z,25.20
2023-08-11T19:53:13.864Z,25.20
2023-08-11T19:55:45.192Z,25.10
2023-08-11T19:58:13.465Z,25.10
2023-08-11T20:00:41.868Z,25.00
2023-08-11T20:03:10.598Z,24.90
2023-08-11T20:05:43.651Z,24.80
2023-08-11T20:08:11.812Z,24.90
2023-08-11T20:10:39.973Z,24.80
2023-08-11T20:13:09.345Z,24.80
2023-08-11T20:15:37.250Z,24.70
2023-08-11T20:18:05.700Z,24.70
2023-08-11T20:20:33.751Z,24.60
2023-08-11T20:23:01.613Z,24.60
2023-08-11T20:25:29.586Z,24.60
2023-08-11T20:27:57.964Z,24.60
2023-08-11T20:30:27.121Z,24.50
2023-08-11T20:32:55.255Z,24.50
2023-08-11T20:35:23.308Z,24.50
2023-08-11T20:37:51.225Z,24.40
2023-08-11T20:40:19.060Z,24.40
2023-08-11T20:42:47.035Z,24.40
2023-08-11T20:45:14.918Z,24.40
2023-08-11T20:47:44.179Z,24.40
2023-08-11T20:50:12.273Z,24.30
2023-08-11T20:52:40.104Z,24.20
2023-08-11T20:55:08.655Z,24.20
2023-08-11T20:57:36.517Z,24.20
2023-08-11T21:00:06.718Z,24.20
2023-08-11T21:02:34.536Z,24.20
2023-08-11T21:05:03.740Z,24.20
2023-08-11T21:07:31.559Z,24.20
2023-08-11T21:09:59.422Z,24.20
2023-08-11T21:12:27.336Z,24.10
2023-08-11T21:14:55.105Z,24.10
2023-08-11T21:17:22.918Z,24.10
2023-08-11T21:19:50.927Z,24.10
2023-08-11T21:22:20.089Z,24.00
2023-08-11T21:24:47.957Z,24.00
2023-08-11T21:27:17.921Z,23.90
2023-08-11T21:29:45.939Z,23.90
2023-08-11T21:32:13.813Z,23.90
2023-08-11T21:34:41.700Z,23.90
2023-08-11T21:37:09.807Z,23.90
2023-08-11T21:39:40.404Z,23.80
2023-08-11T21:42:09.624Z,23.80
2023-08-11T21:44:37.692Z,23.80
2023-08-11T21:47:06.063Z,23.70
2023-08-11T21:49:34.297Z,23.70
2023-08-11T21:52:02.156Z,23.70
2023-08-11T21:54:30.049Z,23.70
2023-08-11T21:56:59.328Z,23.70
2023-08-11T21:59:27.465Z,23.70
2023-08-11T22:01:55.424Z,23.70
2023-08-11T22:04:23.628Z,23.80
2023-08-11T22:06:51.485Z,23.80
2023-08-11T22:09:19.522Z,23.80
2023-08-11T22:11:47.513Z,23.70
2023-08-11T22:14:16.838Z,23.60
2023-08-11T22:16:45.058Z,23.30
2023-08-11T22:19:13.408Z,23.40
2023-08-11T22:21:41.317Z,23.50
2023-08-11T22:24:09.803Z,23.50
2023-08-11T22:26:38.013Z,23.60
2023-08-11T22:29:06.173Z,23.60
2023-08-11T22:31:35.428Z,23.70
2023-08-11T22:34:03.285Z,23.70
2023-08-11T22:36:31.095Z,23.70
2023-08-11T22:38:58.998Z,23.70
2023-08-11T22:41:27.154Z,23.60
2023-08-11T22:43:55.006Z,23.30
2023-08-11T22:46:22.933Z,23.00
2023-08-11T22:48:52.283Z,22.90
2023-08-11T22:51:20.572Z,22.80
2023-08-11T22:53:48.421Z,22.80
2023-08-11T22:56:16.263Z,22.80
2023-08-11T22:58:44.060Z,22.70
2023-08-11T23:01:11.976Z,22.50
2023-08-11T23:03:39.821Z,22.50
2023-08-11T23:06:09.259Z,22.60
2023-08-11T23:08:37.677Z,22.50
2023-08-11T23:11:06.295Z,22.50
2023-08-11T23:13:34.093Z,22.50
2023-08-11T23:16:01.919Z,22.70
2023-08-11T23:18:29.915Z,22.80
2023-08-11T23:20:58.116Z,22.90
2023-08-11T23:23:27.281Z,22.90
2023-08-11T23:25:55.907Z,22.90
2023-08-11T23:28:27.148Z,22.70
2023-08-11T23:30:55.141Z,22.80
2023-08-11T23:33:23.033Z,22.80
2023-08-11T23:35:51.205Z,22.90
2023-08-11T23:38:19.029Z,22.70
2023-08-11T23:40:48.245Z,22.80
2023-08-11T23:43:16.270Z,22.80
2023-08-11T23:45:44.272Z,22.80
2023-08-11T23:48:12.281Z,22.80
2023-08-11T23:50:40.350Z,22.80
2023-08-11T23:53:08.137Z,22.80
2023-08-11T23:55:36.978Z,22.80
2023-08-11T23:58:06.475Z,22.80
